Map

Track Data

SID SEASON NUMBER BASIN SUBBASIN NAME ISO_TIME NATURE LAT LON WMO_WIND WMO_PRES WMO_AGENCY TRACK_TYPE DIST2LAND LANDFALL IFLAG USA_AGENCY USA_ATCF_ID USA_LAT USA_LON USA_RECORD USA_STATUS USA_WIND USA_PRES USA_SSHS USA_R34_NE USA_R34_SE USA_R34_SW USA_R34_NW USA_R50_NE USA_R50_SE USA_R50_SW USA_R50_NW USA_R64_NE USA_R64_SE USA_R64_SW USA_R64_NW USA_POCI USA_ROCI USA_RMW USA_EYE TOKYO_LAT TOKYO_LON TOKYO_GRADE TOKYO_WIND TOKYO_PRES TOKYO_R50_DIR TOKYO_R50_LONG TOKYO_R50_SHORT TOKYO_R30_DIR TOKYO_R30_LONG TOKYO_R30_SHORT TOKYO_LAND CMA_LAT CMA_LON CMA_CAT CMA_WIND CMA_PRES HKO_LAT HKO_LON HKO_CAT HKO_WIND HKO_PRES NEWDELHI_LAT NEWDELHI_LON NEWDELHI_GRADE NEWDELHI_WIND NEWDELHI_PRES NEWDELHI_CI NEWDELHI_DP NEWDELHI_POCI REUNION_LAT REUNION_LON REUNION_TYPE REUNION_WIND REUNION_PRES REUNION_TNUM REUNION_CI REUNION_RMW REUNION_R34_NE REUNION_R34_SE REUNION_R34_SW REUNION_R34_NW REUNION_R50_NE REUNION_R50_SE REUNION_R50_SW REUNION_R50_NW REUNION_R64_NE REUNION_R64_SE REUNION_R64_SW REUNION_R64_NW BOM_LAT BOM_LON BOM_TYPE BOM_WIND BOM_PRES BOM_TNUM BOM_CI BOM_RMW BOM_R34_NE BOM_R34_SE BOM_R34_SW BOM_R34_NW BOM_R50_NE BOM_R50_SE BOM_R50_SW BOM_R50_NW BOM_R64_NE BOM_R64_SE BOM_R64_SW BOM_R64_NW BOM_ROCI BOM_POCI BOM_EYE BOM_POS_METHOD BOM_PRES_METHOD NADI_LAT NADI_LON NADI_CAT NADI_WIND NADI_PRES WELLINGTON_LAT WELLINGTON_LON WELLINGTON_WIND WELLINGTON_PRES DS824_LAT DS824_LON DS824_STAGE DS824_WIND DS824_PRES TD9636_LAT TD9636_LON TD9636_STAGE TD9636_WIND TD9636_PRES TD9635_LAT TD9635_LON TD9635_WIND TD9635_PRES TD9635_ROCI NEUMANN_LAT NEUMANN_LON NEUMANN_CLASS NEUMANN_WIND NEUMANN_PRES MLC_LAT MLC_LON MLC_CLASS MLC_WIND MLC_PRES USA_GUST BOM_GUST BOM_GUST_PER REUNION_GUST REUNION_GUST_PER USA_SEAHGT USA_SEARAD_NE USA_SEARAD_SE USA_SEARAD_SW USA_SEARAD_NW STORM_SPEED STORM_DIR
1977318N06093 1977 110 NI BB NOT_NAMED 1977-11-14 00:00:00 TS 6.00000 92.5000 main 302 302 O________OO___ jtwc_io IO061977 6.00000 92.5000 -1 6.00000 92.5000 TC 6.00000 92.5000 1 9 270
1977318N06093 1977 110 NI BB NOT_NAMED 1977-11-14 03:00:00 TS 5.99976 92.0282 main 357 357 P________PP___ IO061977 6.00008 92.0375 -1 6.00008 92.0375 TC 5.99911 92.0095 1 9 270
1977318N06093 1977 110 NI BB NOT_NAMED 1977-11-14 06:00:00 TS 5.99945 91.5851 main 401 401 O________OP___ jtwc_io IO061977 6.00000 91.6000 -1 6.00000 91.6000 TC 5.99835 91.5552 1 8 270
1977318N06093 1977 110 NI BB NOT_NAMED 1977-11-14 09:00:00 TS 5.99945 91.1994 main 445 445 P________PP___ IO061977 5.99998 91.2125 -1 5.99998 91.2125 TC 5.99840 91.1733 1 7 270
1977318N06093 1977 110 NI BB NOT_NAMED 1977-11-14 12:00:00 TS 6.00000 90.9000 main 478 478 O________OO___ jtwc_io IO061977 6.00000 90.9000 -1 6.00000 90.9000 TC 6.00000 90.9000 1 5 270
1977318N06093 1977 110 NI BB NOT_NAMED 1977-11-14 15:00:00 TS 5.99662 90.7010 main 500 500 P________PP___ IO061977 5.99246 90.6775 -1 5.99246 90.6775 TC 6.00494 90.7479 1 4 271
1977318N06093 1977 110 NI BB NOT_NAMED 1977-11-14 18:00:00 TS 6.00630 90.5449 main 522 522 O________OP___ jtwc_io IO061977 6.00000 90.5000 -1 6.00000 90.5000 TC 6.01889 90.6346 1 3 279
1977318N06093 1977 110 NI BB NOT_NAMED 1977-11-14 21:00:00 TS 6.03932 90.4163 main 533 533 P________PP___ IO061977 6.03476 90.3974 -1 6.03476 90.3974 TC 6.04844 90.4540 1 5 282
1977318N06093 1977 110 NI BB NOT_NAMED 1977-11-15 00:00:00 TS 6.10000 90.1000 main 567 567 O________OO___ jtwc_io IO061977 6.10000 90.1000 -1 6.10000 90.1000 TC 6.10000 90.1000 2 11 278
1977318N06093 1977 110 NI BB NOT_NAMED 1977-11-15 03:00:00 TS 6.18709 89.3449 main 656 656 P________PP___ IO061977 6.19270 89.3475 -1 6.19270 89.3475 TC 6.17586 89.3398 2 17 276
1977318N06093 1977 110 NI BB NOT_NAMED 1977-11-15 06:00:00 TS 6.29073 88.4051 main 722 622 O________OP___ jtwc_io IO061977 6.30000 88.4000 -1 6.30000 88.4000 TC 6.27219 88.4153 2 19 276
1977318N06093 1977 110 NI BB NOT_NAMED 1977-11-15 09:00:00 TS 6.39418 87.4678 main 622 533 P________PP___ IO061977 6.40019 87.4601 -1 6.40019 87.4601 TC 6.38217 87.4832 2 17 277
1977318N06093 1977 110 NI BB NOT_NAMED 1977-11-15 12:00:00 TS 6.50000 86.7000 main 533 499 O________OO___ jtwc_io IO061977 6.50000 86.7000 XX 55 -5 6.50000 86.7000 TC 55 6.50000 86.7000 4 11 280
1977318N06093 1977 110 NI BB NOT_NAMED 1977-11-15 15:00:00 TS 6.58555 86.3378 main 488 476 P________PP___ IO061977 6.59224 86.3600 XX 57 -5 6.59224 86.3600 TC 57 6.57218 86.2935 4 6 289
1977318N06093 1977 110 NI BB NOT_NAMED 1977-11-15 18:00:00 TS 6.68629 86.1498 main 465 453 O________OP___ jtwc_io IO061977 6.70000 86.2000 XX 60 -5 6.70000 86.2000 TC 60 6.65887 86.0496 4 5 299
1977318N06093 1977 110 NI BB NOT_NAMED 1977-11-15 21:00:00 TS 6.80536 85.9419 main 442 419 P________PP___ IO061977 6.81245 85.9724 XX 65 -5 6.81245 85.9724 TC 65 6.79117 85.8809 4 5 305
1977318N06093 1977 110 NI BB NOT_NAMED 1977-11-16 00:00:00 TS 7.00000 85.7000 main 419 376 O________OO___ jtwc_io IO061977 7.00000 85.7000 XX 70 -5 7.00000 85.7000 TC 70 7.00000 85.7000 4 8 310
1977318N06093 1977 110 NI BB NOT_NAMED 1977-11-16 03:00:00 TS 7.31718 85.3206 main 376 340 P________PP___ IO061977 7.30506 85.3075 XX 72 -5 7.30506 85.3075 TC 72 7.34142 85.3467 4 11 313
1977318N06093 1977 110 NI BB NOT_NAMED 1977-11-16 06:00:00 TS 7.71843 84.9236 main 340 313 O________OP___ jtwc_io IO061977 7.70000 84.9000 XX 75 -5 7.70000 84.9000 TC 75 7.75528 84.9707 4 11 319
1977318N06093 1977 110 NI BB NOT_NAMED 1977-11-16 09:00:00 TS 8.17381 84.5781 main 315 293 P________PP___ IO061977 8.16498 84.5626 XX 77 -5 8.16498 84.5626 TC 77 8.19146 84.6092 4 11 325
1977318N06093 1977 110 NI BB NOT_NAMED 1977-11-16 12:00:00 TS 8.60000 84.3000 main 297 286 O________OO___ jtwc_io IO061977 8.60000 84.3000 XX 80 -5 8.60000 84.3000 TC 80 8.60000 84.3000 4 8 327
1977318N06093 1977 110 NI BB NOT_NAMED 1977-11-16 15:00:00 TS 8.88250 84.1156 main 292 286 P________PP___ IO061977 8.87245 84.1274 XX 82 -5 8.87245 84.1274 TC 82 8.90260 84.0921 4 6 329
1977318N06093 1977 110 NI BB NOT_NAMED 1977-11-16 18:00:00 TS 9.12408 83.9798 main 291 286 O________OP___ jtwc_io IO061977 9.10000 84.0000 XX 85 -5 9.10000 84.0000 TC 85 9.17224 83.9395 4 6 332
1977318N06093 1977 110 NI BB NOT_NAMED 1977-11-16 21:00:00 TS 9.40525 83.8390 main 286 286 P________PP___ IO061977 9.39249 83.8500 XX 87 -5 9.39249 83.8500 TC 87 9.43077 83.8172 4 6 334
1977318N06093 1977 110 NI BB NOT_NAMED 1977-11-17 00:00:00 TS 9.70000 83.7000 main 291 288 O________OO___ jtwc_io IO061977 9.70000 83.7000 XX 90 -5 9.70000 83.7000 TC 90 9.70000 83.7000 4 7 334
1977318N06093 1977 110 NI BB NOT_NAMED 1977-11-17 03:00:00 TS 9.99582 83.5499 main 291 291 P________PP___ IO061977 9.99249 83.5500 XX 92 -5 9.99249 83.5500 TC 92 10.0025 83.5499 4 7 334
1977318N06093 1977 110 NI BB NOT_NAMED 1977-11-17 06:00:00 TS 10.3067 83.4000 main 300 298 O________OP___ jtwc_io IO061977 10.3000 83.4000 XX 95 -5 10.3000 83.4000 TC 95 10.3200 83.3999 4 7 335
1977318N06093 1977 110 NI BB NOT_NAMED 1977-11-17 09:00:00 TS 10.6458 83.2499 main 300 300 P________PP___ IO061977 10.6425 83.2500 XX 95 -5 10.6425 83.2500 TC 95 10.6525 83.2499 4 8 337
1977318N06093 1977 110 NI BB NOT_NAMED 1977-11-17 12:00:00 TS 11.0000 83.1000 main 315 314 O________OO___ jtwc_io IO061977 11.0000 83.1000 XX 95 -5 11.0000 83.1000 TC 95 11.0000 83.1000 4 8 337
1977318N06093 1977 110 NI BB NOT_NAMED 1977-11-17 15:00:00 TS 11.3512 82.9513 main 328 296 P________PP___ IO061977 11.3425 82.9500 XX 97 -5 11.3425 82.9500 TC 97 11.3687 82.9540 4 8 338
1977318N06093 1977 110 NI BB NOT_NAMED 1977-11-17 18:00:00 TS 11.7166 82.8025 main 296 275 O________OP___ jtwc_io IO061977 11.7000 82.8000 XX 100 -5 11.7000 82.8000 TC 100 11.7499 82.8074 4 8 339
1977318N06093 1977 110 NI BB NOT_NAMED 1977-11-17 21:00:00 TS 12.1104 82.6524 main 275 249 P________PP___ IO061977 12.1000 82.6500 XX 100 -5 12.1000 82.6500 TC 100 12.1312 82.6571 4 8 339
1977318N06093 1977 110 NI BB NOT_NAMED 1977-11-18 00:00:00 TS 12.5000 82.5000 main 249 234 O________OO___ jtwc_io IO061977 12.5000 82.5000 XX 100 -5 12.5000 82.5000 TC 100 12.5000 82.5000 4 8 338
1977318N06093 1977 110 NI BB NOT_NAMED 1977-11-18 03:00:00 TS 12.8605 82.3477 main 221 206 P________PP___ IO061977 12.8650 82.3574 XX 102 -5 12.8650 82.3574 TC 102 12.8515 82.3281 4 8 336
1977318N06093 1977 110 NI BB NOT_NAMED 1977-11-18 06:00:00 TS 13.1958 82.1833 main 206 183 O________OP___ jtwc_io IO061977 13.2000 82.2000 XX 105 -5 13.2000 82.2000 TC 105 13.1875 82.1500 4 7 332
1977318N06093 1977 110 NI BB NOT_NAMED 1977-11-18 09:00:00 TS 13.5116 81.9906 main 183 162 P________PP___ IO061977 13.5150 82.0000 XX 105 -5 13.5150 82.0000 TC 105 13.5047 81.9719 4 7 328
1977318N06093 1977 110 NI BB NOT_NAMED 1977-11-18 12:00:00 TS 13.8000 81.8000 main 162 151 O________OO___ jtwc_io IO061977 13.8000 81.8000 XX 105 -5 13.8000 81.8000 TC 105 13.8000 81.8000 4 6 328
1977318N06093 1977 110 NI BB NOT_NAMED 1977-11-18 15:00:00 TS 14.0567 81.6438 main 144 137 P________PP___ IO061977 14.0575 81.6424 XX 107 -5 14.0575 81.6424 TC 107 14.0552 81.6465 4 6 330
1977318N06093 1977 110 NI BB NOT_NAMED 1977-11-18 18:00:00 TS 14.2975 81.4998 main 141 129 O________OP___ jtwc_io IO061977 14.3000 81.5000 XX 110 -5 14.3000 81.5000 TC 110 14.2924 81.4995 4 6 329
1977318N06093 1977 110 NI BB NOT_NAMED 1977-11-18 21:00:00 TS 14.5344 81.3509 main 129 105 P________PP___ IO061977 14.5350 81.3499 XX 110 -5 14.5350 81.3499 TC 110 14.5334 81.3528 4 6 330
1977318N06093 1977 110 NI BB NOT_NAMED 1977-11-19 00:00:00 TS 14.8000 81.2000 main 105 70 O________OO___ jtwc_io IO061977 14.8000 81.2000 XX 110 -5 14.8000 81.2000 TC 110 14.8000 81.2000 4 7 334
1977318N06093 1977 110 NI BB NOT_NAMED 1977-11-19 03:00:00 TS 15.1318 81.0437 main 68 22 P________PP___ IO061977 15.1350 81.0574 XX 110 -5 15.1350 81.0574 TC 110 15.1254 81.0161 4 8 336
1977318N06093 1977 110 NI BB NOT_NAMED 1977-11-19 06:00:00 TS 15.4925 80.8759 main 22 0 O________OP___ jtwc_io IO061977 15.5000 80.9000 XX 110 -5 15.5000 80.9000 TC 110 15.4776 80.8278 4 8 334
1977318N06093 1977 110 NI BB NOT_NAMED 1977-11-19 09:00:00 TS 15.8470 80.6785 main 10 0 P________PP___ IO061977 15.8500 80.6926 XX 107 -5 15.8500 80.6926 TC 107 15.8410 80.6505 4 8 333
1977318N06093 1977 110 NI BB NOT_NAMED 1977-11-19 12:00:00 TS 16.2000 80.5000 main 0 0 O________OO___ jtwc_io IO061977 16.2000 80.5000 XX 105 -5 16.2000 80.5000 TC 105 16.2000 80.5000 4 8 338
1977318N06093 1977 110 NI BB NOT_NAMED 1977-11-19 15:00:00 TS 16.5544 80.3783 main 0 0 P________PP___ IO061977 16.5575 80.3774 XX 100 -5 16.5575 80.3774 TC 100 16.5484 80.3799 4 7 345
1977318N06093 1977 110 NI BB NOT_NAMED 1977-11-19 18:00:00 TS 16.8958 80.2966 main 0 0 O________OP___ jtwc_io IO061977 16.9000 80.3000 XX 95 -5 16.9000 80.3000 TC 95 16.8874 80.2899 4 7 348
1977318N06093 1977 110 NI BB NOT_NAMED 1977-11-19 21:00:00 TS 17.2126 80.2333 main 0 0 P________PP___ IO061977 17.2150 80.2350 XX -5 17.2150 80.2350 TC 17.2078 80.2300 4 6 352
1977318N06093 1977 110 NI BB NOT_NAMED 1977-11-20 00:00:00 TS 17.5000 80.2000 main 0 0 O________OO___ jtwc_io IO061977 17.5000 80.2000 -1 17.5000 80.2000 TC 17.5000 80.2000 1 6 356
1977318N06093 1977 110 NI BB NOT_NAMED 1977-11-20 03:00:00 TS 17.7626 80.1896 main 0 0 P________PP___ IO061977 17.7650 80.1850 -1 17.7650 80.1850 TC 17.7578 80.1987 1 5 0
1977318N06093 1977 110 NI BB NOT_NAMED 1977-11-20 06:00:00 TS 17.9958 80.2066 main 0 0 O________OP___ jtwc_io IO061977 18.0000 80.2000 -1 18.0000 80.2000 TC 17.9875 80.2199 1 4 8
1977318N06093 1977 110 NI BB NOT_NAMED 1977-11-20 09:00:00 TS 18.2045 80.2470 main 0 0 P________PP___ IO061977 18.2075 80.2425 -1 18.2075 80.2425 TC 18.1985 80.2561 1 4 12
1977318N06093 1977 110 NI BB NOT_NAMED 1977-11-20 12:00:00 TS 18.4000 80.3000 main 0 O________OO___ jtwc_io IO061977 18.4000 80.3000 -1 18.4000 80.3000 TC 18.4000 80.3000 1 4 14

About IBTrACS Database

This database is a web-friendly format of International Best Track Archive for Climate Stewardship (IBTrACS), a global best track data archive curated by NOAA dating back to 1842.

Updated: 2021-10-21